createdAt,value
2022-11-17T04:47:53.328Z,6.60
2022-11-17T04:50:56.853Z,6.64
2022-11-17T04:54:00.209Z,6.70
2022-11-17T04:57:03.444Z,6.70
2022-11-17T05:00:06.892Z,6.70
2022-11-17T05:03:09.651Z,6.78
2022-11-17T05:06:15.549Z,6.84
2022-11-17T05:09:18.329Z,6.89
2022-11-17T05:12:39.628Z,6.90
2022-11-17T05:16:01.144Z,6.95
2022-11-17T05:19:05.739Z,6.96
2022-11-17T05:22:28.820Z,6.98
2022-11-17T05:25:31.307Z,7.02
2022-11-17T05:28:34.055Z,7.01
2022-11-17T05:31:37.060Z,6.99
2022-11-17T05:34:39.970Z,7.01
2022-11-17T05:37:42.412Z,7.00
2022-11-17T05:40:45.187Z,7.08
2022-11-17T05:43:48.232Z,7.04
2022-11-17T05:46:51.122Z,7.05
2022-11-17T05:49:53.732Z,7.02
2022-11-17T05:52:56.463Z,7.01
2022-11-17T05:56:29.529Z,7.00
2022-11-17T05:59:57.065Z,7.03
2022-11-17T06:03:04.848Z,7.07
2022-11-17T06:06:08.636Z,7.04
2022-11-17T06:09:11.844Z,7.10
2022-11-17T06:12:15.630Z,7.12
2022-11-17T06:15:18.309Z,7.20
2022-11-17T06:18:25.370Z,7.20
2022-11-17T06:21:43.118Z,7.22
2022-11-17T06:24:51.003Z,7.23
2022-11-17T06:27:54.543Z,7.13
2022-11-17T06:30:59.175Z,7.14
2022-11-17T06:34:02.653Z,7.25
2022-11-17T06:37:05.620Z,7.36
2022-11-17T06:40:10.034Z,7.46
2022-11-17T06:43:12.926Z,7.50
2022-11-17T06:46:15.426Z,7.46
2022-11-17T06:49:19.145Z,7.28
2022-11-17T06:52:21.646Z,7.23
2022-11-17T06:55:25.143Z,7.21
2022-11-17T06:58:28.509Z,7.26
2022-11-17T07:01:31.589Z,7.25
2022-11-17T07:04:34.377Z,7.29
2022-11-17T07:07:37.313Z,7.69
2022-11-17T07:10:42.654Z,8.32
2022-11-17T07:13:49.305Z,8.63
2022-11-17T07:16:51.993Z,8.72
2022-11-17T07:19:55.285Z,8.58
2022-11-17T07:22:59.187Z,8.54
2022-11-17T07:26:02.782Z,8.71
2022-11-17T07:29:05.618Z,8.78
2022-11-17T07:32:11.429Z,8.73
2022-11-17T07:35:14.073Z,8.67
2022-11-17T07:38:16.929Z,8.66
2022-11-17T07:41:19.583Z,8.70
2022-11-17T07:44:22.508Z,8.53
2022-11-17T07:47:25.066Z,8.27
2022-11-17T07:50:28.841Z,8.31
2022-11-17T07:53:33.457Z,8.38
2022-11-17T07:56:36.383Z,8.43
2022-11-17T07:59:39.510Z,8.48
2022-11-17T08:02:42.298Z,8.44
2022-11-17T08:05:45.174Z,8.45
2022-11-17T08:08:49.692Z,8.57
2022-11-17T08:11:52.850Z,8.57
2022-11-17T08:14:55.459Z,8.73
2022-11-17T08:18:00.219Z,8.81
2022-11-17T08:21:08.796Z,8.82
2022-11-17T08:24:12.538Z,8.93
2022-11-17T08:27:15.217Z,8.92
2022-11-17T08:30:19.582Z,8.94
2022-11-17T08:33:23.213Z,9.05
2022-11-17T08:36:26.135Z,9.19
2022-11-17T08:39:28.905Z,9.39
2022-11-17T08:42:31.656Z,9.39
2022-11-17T08:45:34.394Z,9.53
2022-11-17T08:48:37.625Z,9.75
2022-11-17T08:51:40.606Z,10.06
2022-11-17T08:54:43.384Z,10.23
2022-11-17T08:57:45.961Z,10.31
2022-11-17T09:00:48.995Z,10.09
2022-11-17T09:03:51.509Z,9.90
2022-11-17T09:06:54.272Z,9.67
2022-11-17T09:09:57.261Z,9.73
2022-11-17T09:13:00.008Z,9.99
2022-11-17T09:16:11.815Z,10.25
2022-11-17T09:19:16.168Z,10.26
2022-11-17T09:22:19.900Z,10.54
2022-11-17T09:25:22.597Z,10.60
2022-11-17T09:28:26.106Z,10.57
2022-11-17T09:31:30.439Z,10.43
2022-11-17T09:34:33.022Z,10.30
2022-11-17T09:37:36.087Z,10.06
2022-11-17T09:40:41.421Z,10.34
2022-11-17T09:43:51.039Z,10.37
2022-11-17T09:47:06.278Z,10.53
2022-11-17T09:50:29.988Z,10.64
2022-11-17T09:53:57.253Z,10.46
2022-11-17T09:57:01.357Z,10.54
2022-11-17T10:00:11.570Z,10.59
2022-11-17T10:03:20.065Z,10.77
2022-11-17T10:06:25.580Z,10.82
2022-11-17T10:09:36.996Z,10.96
2022-11-17T10:12:47.665Z,11.04
2022-11-17T10:15:57.001Z,11.00
2022-11-17T10:19:22.063Z,10.99
2022-11-17T10:22:36.973Z,10.96
2022-11-17T10:25:46.055Z,11.13
2022-11-17T10:29:08.481Z,11.24
2022-11-17T10:32:15.032Z,11.42
2022-11-17T10:35:25.149Z,11.58
2022-11-17T10:38:29.917Z,11.61
2022-11-17T10:41:42.764Z,11.25
2022-11-17T10:44:51.262Z,11.23
2022-11-17T10:48:08.632Z,11.22
2022-11-17T10:51:23.917Z,11.25
2022-11-17T10:54:26.821Z,11.32
2022-11-17T10:57:29.236Z,11.50
2022-11-17T11:00:35.394Z,11.54
2022-11-17T11:03:49.677Z,11.67
2022-11-17T11:07:13.669Z,11.49
2022-11-17T11:10:26.397Z,11.25
2022-11-17T11:13:33.918Z,11.27
2022-11-17T11:16:36.347Z,11.18
2022-11-17T11:19:42.198Z,11.40
2022-11-17T11:23:02.611Z,11.52
2022-11-17T11:26:05.388Z,11.58
2022-11-17T11:29:20.018Z,11.99
2022-11-17T11:32:41.224Z,12.07
2022-11-17T11:35:56.228Z,11.98
2022-11-17T11:39:36.352Z,11.93
2022-11-17T11:42:48.759Z,11.77
2022-11-17T11:46:08.387Z,11.71
2022-11-17T11:49:36.696Z,11.63
2022-11-17T11:52:47.800Z,11.64
2022-11-17T11:56:04.964Z,11.51
2022-11-17T11:59:14.645Z,11.54
2022-11-17T12:02:23.106Z,11.58
2022-11-17T12:05:52.023Z,11.65
2022-11-17T12:09:09.789Z,11.63
2022-11-17T12:12:28.790Z,11.70
2022-11-17T12:15:35.944Z,11.61
2022-11-17T12:18:38.990Z,11.50
2022-11-17T12:21:42.174Z,11.80
2022-11-17T12:24:45.882Z,12.01
2022-11-17T12:27:49.906Z,12.46
2022-11-17T12:30:55.352Z,12.69
2022-11-17T12:34:00.687Z,12.33
2022-11-17T12:37:28.136Z,12.38
2022-11-17T12:40:51.788Z,12.01
2022-11-17T12:44:33.005Z,12.30
2022-11-17T12:47:40.064Z,12.87
2022-11-17T12:51:00.494Z,13.22
2022-11-17T12:54:21.058Z,13.45
2022-11-17T12:57:29.027Z,13.03
2022-11-17T13:00:48.066Z,12.84
2022-11-17T13:04:14.982Z,12.55
2022-11-17T13:07:27.006Z,12.45
2022-11-17T13:10:31.781Z,12.29
2022-11-17T13:13:37.022Z,12.10
2022-11-17T13:16:50.881Z,11.86
2022-11-17T13:20:16.173Z,11.78
2022-11-17T13:23:27.481Z,11.74
2022-11-17T13:26:37.511Z,11.67
2022-11-17T13:29:40.333Z,11.47
2022-11-17T13:32:43.430Z,11.23
2022-11-17T13:35:46.184Z,11.31
2022-11-17T13:38:54.817Z,11.16
2022-11-17T13:42:01.194Z,11.09
2022-11-17T13:45:05.632Z,11.07
2022-11-17T13:48:35.072Z,10.77
2022-11-17T13:51:46.506Z,10.52
2022-11-17T13:54:49.435Z,10.34
2022-11-17T13:58:22.248Z,10.44
2022-11-17T14:01:29.792Z,10.20
2022-11-17T14:04:32.776Z,9.99
2022-11-17T14:07:37.712Z,10.12
2022-11-17T14:10:40.733Z,10.17
2022-11-17T14:13:50.352Z,10.03
2022-11-17T14:16:53.297Z,9.94
2022-11-17T14:19:56.008Z,9.87
2022-11-17T14:23:15.871Z,9.89
2022-11-17T14:26:24.716Z,9.86
2022-11-17T14:29:28.468Z,9.85
2022-11-17T14:32:32.354Z,9.87
2022-11-17T14:35:35.702Z,9.87
2022-11-17T14:38:38.175Z,9.91
2022-11-17T14:41:42.142Z,9.84
2022-11-17T14:44:44.579Z,9.81
2022-11-17T14:47:48.629Z,9.84
2022-11-17T14:50:59.294Z,9.81
2022-11-17T14:54:03.045Z,9.77
2022-11-17T14:57:05.683Z,9.73
2022-11-17T15:00:11.714Z,9.62
2022-11-17T15:03:17.062Z,9.50
2022-11-17T15:06:22.079Z,9.47
2022-11-17T15:09:24.619Z,9.43
2022-11-17T15:12:29.039Z,9.38
2022-11-17T15:15:31.555Z,9.31
2022-11-17T15:18:34.358Z,9.23
2022-11-17T15:21:37.429Z,9.22
2022-11-17T15:24:40.157Z,9.22
2022-11-17T15:27:42.596Z,9.24
2022-11-17T15:30:45.912Z,9.23
2022-11-17T15:33:48.710Z,9.22
2022-11-17T15:36:51.660Z,9.23
2022-11-17T15:39:54.337Z,9.19
2022-11-17T15:42:57.225Z,9.13
2022-11-17T15:46:10.533Z,9.09
2022-11-17T15:49:13.722Z,9.03
2022-11-17T15:52:19.541Z,8.95
2022-11-17T15:55:35.342Z,8.91
2022-11-17T15:58:40.704Z,8.89
2022-11-17T16:01:44.215Z,8.92
2022-11-17T16:04:46.958Z,8.92
2022-11-17T16:07:49.438Z,8.99
2022-11-17T16:10:52.313Z,8.99
2022-11-17T16:13:55.818Z,8.96
2022-11-17T16:16:58.657Z,8.96
2022-11-17T16:20:01.243Z,8.93
2022-11-17T16:23:04.113Z,8.93
2022-11-17T16:26:07.027Z,8.89
2022-11-17T16:29:09.866Z,8.95
2022-11-17T16:32:12.416Z,8.93
2022-11-17T16:35:15.136Z,8.95
2022-11-17T16:38:18.005Z,8.94
2022-11-17T16:41:22.448Z,8.95
2022-11-17T16:44:25.101Z,8.99
2022-11-17T16:47:28.589Z,9.18
2022-11-17T16:50:35.776Z,9.17
2022-11-17T16:53:38.598Z,9.16
